sensor_id;sensor_type;location;lat;lon;timestamp;temperature;humidity
11242;DHT22;5678;52.370;9.006;2023-04-15T00:01:52;5.60;99.90
11242;DHT22;5678;52.370;9.006;2023-04-15T00:04:20;5.50;99.90
11242;DHT22;5678;52.370;9.006;2023-04-15T00:06:52;6.00;99.90
11242;DHT22;5678;52.370;9.006;2023-04-15T00:09:21;5.80;99.90
11242;DHT22;5678;52.370;9.006;2023-04-15T00:11:49;5.60;99.90
11242;DHT22;5678;52.370;9.006;2023-04-15T00:14:18;5.70;99.90
11242;DHT22;5678;52.370;9.006;2023-04-15T00:16:46;6.00;99.90
11242;DHT22;5678;52.370;9.006;2023-04-15T00:19:20;6.70;99.90
11242;DHT22;5678;52.370;9.006;2023-04-15T00:21:48;6.30;99.90
11242;DHT22;5678;52.370;9.006;2023-04-15T00:24:17;5.80;99.90
11242;DHT22;5678;52.370;9.006;2023-04-15T00:26:46;5.80;99.90
11242;DHT22;5678;52.370;9.006;2023-04-15T00:29:14;7.20;99.90
11242;DHT22;5678;52.370;9.006;2023-04-15T00:31:42;5.90;99.90
11242;DHT22;5678;52.370;9.006;2023-04-15T00:34:10;5.90;99.90
11242;DHT22;5678;52.370;9.006;2023-04-15T00:36:38;5.90;99.90
11242;DHT22;5678;52.370;9.006;2023-04-15T00:39:06;5.90;99.90
11242;DHT22;5678;52.370;9.006;2023-04-15T00:41:34;6.80;99.90
11242;DHT22;5678;52.370;9.006;2023-04-15T00:44:06;6.30;99.90
11242;DHT22;5678;52.370;9.006;2023-04-15T00:46:35;6.50;99.90
11242;DHT22;5678;52.370;9.006;2023-04-15T00:49:05;6.00;99.90
11242;DHT22;5678;52.370;9.006;2023-04-15T00:51:33;6.10;99.90
11242;DHT22;5678;52.370;9.006;2023-04-15T00:54:02;6.00;99.90
11242;DHT22;5678;52.370;9.006;2023-04-15T00:56:34;6.30;99.90
11242;DHT22;5678;52.370;9.006;2023-04-15T00:59:02;6.00;99.90
11242;DHT22;5678;52.370;9.006;2023-04-15T01:01:33;6.10;99.90
11242;DHT22;5678;52.370;9.006;2023-04-15T01:04:02;6.00;99.90
11242;DHT22;5678;52.370;9.006;2023-04-15T01:06:31;6.00;99.90
11242;DHT22;5678;52.370;9.006;2023-04-15T01:08:59;6.10;99.90
11242;DHT22;5678;52.370;9.006;2023-04-15T01:11:28;6.00;99.90
11242;DHT22;5678;52.370;9.006;2023-04-15T01:13:57;6.00;99.90
11242;DHT22;5678;52.370;9.006;2023-04-15T01:16:25;6.00;99.90
11242;DHT22;5678;52.370;9.006;2023-04-15T01:18:55;7.20;99.90
11242;DHT22;5678;52.370;9.006;2023-04-15T01:21:24;6.50;99.90
11242;DHT22;5678;52.370;9.006;2023-04-15T01:23:52;6.00;99.90
11242;DHT22;5678;52.370;9.006;2023-04-15T01:26:23;7.10;99.90
11242;DHT22;5678;52.370;9.006;2023-04-15T01:28:51;6.50;99.90
11242;DHT22;5678;52.370;9.006;2023-04-15T01:31:19;6.40;99.90
11242;DHT22;5678;52.370;9.006;2023-04-15T01:33:47;6.80;99.90
11242;DHT22;5678;52.370;9.006;2023-04-15T01:36:15;6.00;99.90
11242;DHT22;5678;52.370;9.006;2023-04-15T01:38:43;6.40;99.90
11242;DHT22;5678;52.370;9.006;2023-04-15T01:41:12;6.60;99.90
11242;DHT22;5678;52.370;9.006;2023-04-15T01:43:42;6.40;99.90
11242;DHT22;5678;52.370;9.006;2023-04-15T01:46:09;6.20;99.90
11242;DHT22;5678;52.370;9.006;2023-04-15T01:48:38;6.00;99.90
11242;DHT22;5678;52.370;9.006;2023-04-15T01:51:06;5.90;99.90
11242;DHT22;5678;52.370;9.006;2023-04-15T01:53:34;6.50;99.90
11242;DHT22;5678;52.370;9.006;2023-04-15T01:56:03;6.00;99.90
11242;DHT22;5678;52.370;9.006;2023-04-15T01:58:31;6.00;99.90
11242;DHT22;5678;52.370;9.006;2023-04-15T02:01:00;6.00;99.90
11242;DHT22;5678;52.370;9.006;2023-04-15T02:03:30;6.10;99.90
11242;DHT22;5678;52.370;9.006;2023-04-15T02:05:58;6.50;99.90
11242;DHT22;5678;52.370;9.006;2023-04-15T02:08:26;6.10;99.90
11242;DHT22;5678;52.370;9.006;2023-04-15T02:10:54;6.20;99.90
11242;DHT22;5678;52.370;9.006;2023-04-15T02:13:22;6.00;99.90
11242;DHT22;5678;52.370;9.006;2023-04-15T02:15:50;6.00;99.90
11242;DHT22;5678;52.370;9.006;2023-04-15T02:18:20;6.70;99.90
11242;DHT22;5678;52.370;9.006;2023-04-15T02:20:50;6.60;99.90
11242;DHT22;5678;52.370;9.006;2023-04-15T02:23:18;6.70;99.90
11242;DHT22;5678;52.370;9.006;2023-04-15T02:25:46;6.60;99.90
11242;DHT22;5678;52.370;9.006;2023-04-15T02:28:19;6.60;99.90
11242;DHT22;5678;52.370;9.006;2023-04-15T02:30:48;6.30;99.90
11242;DHT22;5678;52.370;9.006;2023-04-15T02:33:20;7.00;99.90
11242;DHT22;5678;52.370;9.006;2023-04-15T02:35:48;6.90;99.90
11242;DHT22;5678;52.370;9.006;2023-04-15T02:38:16;6.00;99.90
11242;DHT22;5678;52.370;9.006;2023-04-15T02:40:44;6.00;99.90
11242;DHT22;5678;52.370;9.006;2023-04-15T02:43:12;6.00;99.90
11242;DHT22;5678;52.370;9.006;2023-04-15T02:45:40;6.30;99.90
11242;DHT22;5678;52.370;9.006;2023-04-15T02:48:09;6.00;99.90
11242;DHT22;5678;52.370;9.006;2023-04-15T02:50:38;6.00;99.90
11242;DHT22;5678;52.370;9.006;2023-04-15T02:53:06;6.10;99.90
11242;DHT22;5678;52.370;9.006;2023-04-15T02:55:34;6.80;99.10
11242;DHT22;5678;52.370;9.006;2023-04-15T02:58:02;6.50;99.90
11242;DHT22;5678;52.370;9.006;2023-04-15T03:00:30;6.60;99.90
11242;DHT22;5678;52.370;9.006;2023-04-15T03:03:00;6.00;99.90
11242;DHT22;5678;52.370;9.006;2023-04-15T03:05:29;6.00;99.90
11242;DHT22;5678;52.370;9.006;2023-04-15T03:07:58;6.00;99.90
11242;DHT22;5678;52.370;9.006;2023-04-15T03:10:27;6.00;99.90
11242;DHT22;5678;52.370;9.006;2023-04-15T03:12:55;6.50;99.90
11242;DHT22;5678;52.370;9.006;2023-04-15T03:15:23;6.70;99.90
11242;DHT22;5678;52.370;9.006;2023-04-15T03:17:51;6.00;99.90
11242;DHT22;5678;52.370;9.006;2023-04-15T03:20:19;6.30;99.90
11242;DHT22;5678;52.370;9.006;2023-04-15T03:22:47;5.90;99.90
11242;DHT22;5678;52.370;9.006;2023-04-15T03:25:16;5.90;99.90
11242;DHT22;5678;52.370;9.006;2023-04-15T03:27:44;6.40;99.90
11242;DHT22;5678;52.370;9.006;2023-04-15T03:30:12;5.90;99.90
11242;DHT22;5678;52.370;9.006;2023-04-15T03:32:40;6.30;99.90
11242;DHT22;5678;52.370;9.006;2023-04-15T03:35:08;5.90;99.90
11242;DHT22;5678;52.370;9.006;2023-04-15T03:37:36;6.40;99.90
11242;DHT22;5678;52.370;9.006;2023-04-15T03:40:05;5.80;99.90
11242;DHT22;5678;52.370;9.006;2023-04-15T03:42:35;5.80;99.90
11242;DHT22;5678;52.370;9.006;2023-04-15T03:45:04;6.90;99.90
11242;DHT22;5678;52.370;9.006;2023-04-15T03:47:33;5.80;99.90
11242;DHT22;5678;52.370;9.006;2023-04-15T03:50:01;5.80;99.90
11242;DHT22;5678;52.370;9.006;2023-04-15T03:52:29;5.80;99.90
11242;DHT22;5678;52.370;9.006;2023-04-15T03:54:57;6.20;99.90
11242;DHT22;5678;52.370;9.006;2023-04-15T03:57:24;5.70;99.90
11242;DHT22;5678;52.370;9.006;2023-04-15T03:59:54;5.80;99.90
11242;DHT22;5678;52.370;9.006;2023-04-15T04:02:22;6.10;99.90
11242;DHT22;5678;52.370;9.006;2023-04-15T04:04:50;6.80;99.90
11242;DHT22;5678;52.370;9.006;2023-04-15T04:07:18;5.80;99.90
11242;DHT22;5678;52.370;9.006;2023-04-15T04:09:46;6.40;99.90
11242;DHT22;5678;52.370;9.006;2023-04-15T04:12:14;5.80;99.90
11242;DHT22;5678;52.370;9.006;2023-04-15T04:14:42;6.80;99.90
11242;DHT22;5678;52.370;9.006;2023-04-15T04:17:11;5.80;99.90
11242;DHT22;5678;52.370;9.006;2023-04-15T04:19:39;6.30;99.90
11242;DHT22;5678;52.370;9.006;2023-04-15T04:22:07;6.60;99.90
11242;DHT22;5678;52.370;9.006;2023-04-15T04:24:35;5.80;99.90
11242;DHT22;5678;52.370;9.006;2023-04-15T04:27:03;6.30;99.90
11242;DHT22;5678;52.370;9.006;2023-04-15T04:29:31;6.60;99.90
11242;DHT22;5678;52.370;9.006;2023-04-15T04:31:59;6.40;99.90
11242;DHT22;5678;52.370;9.006;2023-04-15T04:34:28;5.80;99.90
11242;DHT22;5678;52.370;9.006;2023-04-15T04:36:56;5.80;99.90
11242;DHT22;5678;52.370;9.006;2023-04-15T04:39:24;5.90;99.90
11242;DHT22;5678;52.370;9.006;2023-04-15T04:41:52;5.90;99.90
11242;DHT22;5678;52.370;9.006;2023-04-15T04:44:20;6.10;99.90
11242;DHT22;5678;52.370;9.006;2023-04-15T04:46:47;6.60;99.90
11242;DHT22;5678;52.370;9.006;2023-04-15T04:49:15;5.90;99.90
11242;DHT22;5678;52.370;9.006;2023-04-15T04:51:45;6.00;99.90
11242;DHT22;5678;52.370;9.006;2023-04-15T04:54:14;6.40;99.90
11242;DHT22;5678;52.370;9.006;2023-04-15T04:56:42;6.00;99.90
11242;DHT22;5678;52.370;9.006;2023-04-15T04:59:09;6.00;99.90
11242;DHT22;5678;52.370;9.006;2023-04-15T05:01:37;6.10;99.90
11242;DHT22;5678;52.370;9.006;2023-04-15T05:04:05;7.20;99.90
11242;DHT22;5678;52.370;9.006;2023-04-15T05:06:33;6.10;99.90
11242;DHT22;5678;52.370;9.006;2023-04-15T05:09:03;7.20;99.90
11242;DHT22;5678;52.370;9.006;2023-04-15T05:11:31;6.40;99.90
11242;DHT22;5678;52.370;9.006;2023-04-15T05:13:59;6.40;99.90
11242;DHT22;5678;52.370;9.006;2023-04-15T05:16:28;6.20;99.90
11242;DHT22;5678;52.370;9.006;2023-04-15T05:18:56;6.10;99.90
11242;DHT22;5678;52.370;9.006;2023-04-15T05:21:24;7.50;99.90
11242;DHT22;5678;52.370;9.006;2023-04-15T05:23:53;6.20;99.90
11242;DHT22;5678;52.370;9.006;2023-04-15T05:26:22;6.20;99.90
11242;DHT22;5678;52.370;9.006;2023-04-15T05:28:50;6.20;99.90
11242;DHT22;5678;52.370;9.006;2023-04-15T05:31:18;6.20;99.90
11242;DHT22;5678;52.370;9.006;2023-04-15T05:33:46;6.80;99.90
11242;DHT22;5678;52.370;9.006;2023-04-15T05:36:14;6.20;99.90
11242;DHT22;5678;52.370;9.006;2023-04-15T05:38:42;7.10;99.90
11242;DHT22;5678;52.370;9.006;2023-04-15T05:41:10;6.80;99.90
11242;DHT22;5678;52.370;9.006;2023-04-15T05:43:42;6.30;99.90
11242;DHT22;5678;52.370;9.006;2023-04-15T05:46:10;6.70;99.90
11242;DHT22;5678;52.370;9.006;2023-04-15T05:48:38;6.30;99.90
11242;DHT22;5678;52.370;9.006;2023-04-15T05:51:06;6.70;99.90
11242;DHT22;5678;52.370;9.006;2023-04-15T05:53:34;6.40;99.90
11242;DHT22;5678;52.370;9.006;2023-04-15T05:56:02;6.40;99.90
11242;DHT22;5678;52.370;9.006;2023-04-15T05:58:30;6.40;99.90
11242;DHT22;5678;52.370;9.006;2023-04-15T06:01:00;7.40;99.90
11242;DHT22;5678;52.370;9.006;2023-04-15T06:03:28;6.40;99.90
11242;DHT22;5678;52.370;9.006;2023-04-15T06:05:56;7.20;99.90
11242;DHT22;5678;52.370;9.006;2023-04-15T06:08:24;6.40;99.90
11242;DHT22;5678;52.370;9.006;2023-04-15T06:10:52;6.40;99.90
11242;DHT22;5678;52.370;9.006;2023-04-15T06:13:20;7.50;99.90
11242;DHT22;5678;52.370;9.006;2023-04-15T06:15:48;7.10;99.90
11242;DHT22;5678;52.370;9.006;2023-04-15T06:18:17;6.40;99.90
11242;DHT22;5678;52.370;9.006;2023-04-15T06:20:45;6.50;99.90
11242;DHT22;5678;52.370;9.006;2023-04-15T06:23:13;6.60;99.90
11242;DHT22;5678;52.370;9.006;2023-04-15T06:25:41;6.60;99.90
11242;DHT22;5678;52.370;9.006;2023-04-15T06:28:09;6.70;99.90
11242;DHT22;5678;52.370;9.006;2023-04-15T06:30:37;6.60;99.90
11242;DHT22;5678;52.370;9.006;2023-04-15T06:33:05;6.60;99.90
11242;DHT22;5678;52.370;9.006;2023-04-15T06:35:35;7.30;99.90
11242;DHT22;5678;52.370;9.006;2023-04-15T06:38:03;6.60;99.90
11242;DHT22;5678;52.370;9.006;2023-04-15T06:40:31;6.60;99.90
11242;DHT22;5678;52.370;9.006;2023-04-15T06:42:59;6.60;99.90
11242;DHT22;5678;52.370;9.006;2023-04-15T06:45:27;6.50;99.90
11242;DHT22;5678;52.370;9.006;2023-04-15T06:47:55;6.60;99.90
11242;DHT22;5678;52.370;9.006;2023-04-15T06:50:23;6.70;99.90
11242;DHT22;5678;52.370;9.006;2023-04-15T06:52:53;6.80;99.90
11242;DHT22;5678;52.370;9.006;2023-04-15T06:55:21;6.60;99.90
11242;DHT22;5678;52.370;9.006;2023-04-15T06:57:49;6.80;99.90
11242;DHT22;5678;52.370;9.006;2023-04-15T07:00:17;7.60;99.90
11242;DHT22;5678;52.370;9.006;2023-04-15T07:02:45;6.80;99.90
11242;DHT22;5678;52.370;9.006;2023-04-15T07:05:13;7.20;99.90
11242;DHT22;5678;52.370;9.006;2023-04-15T07:07:41;6.80;99.90
11242;DHT22;5678;52.370;9.006;2023-04-15T07:10:11;6.80;99.90
11242;DHT22;5678;52.370;9.006;2023-04-15T07:12:40;6.70;99.90
11242;DHT22;5678;52.370;9.006;2023-04-15T07:15:09;7.30;99.90
11242;DHT22;5678;52.370;9.006;2023-04-15T07:17:36;6.80;99.90
11242;DHT22;5678;52.370;9.006;2023-04-15T07:20:06;6.80;99.90
11242;DHT22;5678;52.370;9.006;2023-04-15T07:22:34;6.90;99.90
11242;DHT22;5678;52.370;9.006;2023-04-15T07:25:02;6.80;99.90
11242;DHT22;5678;52.370;9.006;2023-04-15T07:27:31;6.90;99.90
11242;DHT22;5678;52.370;9.006;2023-04-15T07:29:59;7.30;99.90
11242;DHT22;5678;52.370;9.006;2023-04-15T07:32:27;6.90;99.90
11242;DHT22;5678;52.370;9.006;2023-04-15T07:34:55;6.90;99.90
11242;DHT22;5678;52.370;9.006;2023-04-15T07:37:23;6.90;99.90
11242;DHT22;5678;52.370;9.006;2023-04-15T07:39:51;6.90;99.90
11242;DHT22;5678;52.370;9.006;2023-04-15T07:42:19;6.90;99.90
11242;DHT22;5678;52.370;9.006;2023-04-15T07:44:49;6.90;99.90
11242;DHT22;5678;52.370;9.006;2023-04-15T07:47:16;7.00;99.90
11242;DHT22;5678;52.370;9.006;2023-04-15T07:49:44;8.70;99.90
11242;DHT22;5678;52.370;9.006;2023-04-15T07:52:12;7.10;99.90
11242;DHT22;5678;52.370;9.006;2023-04-15T07:54:40;7.00;99.90
11242;DHT22;5678;52.370;9.006;2023-04-15T07:57:08;7.00;99.90
11242;DHT22;5678;52.370;9.006;2023-04-15T07:59:36;7.90;99.90
11242;DHT22;5678;52.370;9.006;2023-04-15T08:02:06;7.10;99.90
11242;DHT22;5678;52.370;9.006;2023-04-15T08:04:34;7.10;99.90
11242;DHT22;5678;52.370;9.006;2023-04-15T08:07:02;7.10;99.90
11242;DHT22;5678;52.370;9.006;2023-04-15T08:09:31;7.20;99.90
11242;DHT22;5678;52.370;9.006;2023-04-15T08:11:59;8.60;99.90
11242;DHT22;5678;52.370;9.006;2023-04-15T08:14:28;7.20;99.90
11242;DHT22;5678;52.370;9.006;2023-04-15T08:16:56;7.20;99.90
11242;DHT22;5678;52.370;9.006;2023-04-15T08:19:25;9.30;99.90
11242;DHT22;5678;52.370;9.006;2023-04-15T08:21:53;7.30;99.90
11242;DHT22;5678;52.370;9.006;2023-04-15T08:24:21;7.50;99.90
11242;DHT22;5678;52.370;9.006;2023-04-15T08:26:49;7.30;99.90
11242;DHT22;5678;52.370;9.006;2023-04-15T08:29:17;7.30;99.90
11242;DHT22;5678;52.370;9.006;2023-04-15T08:31:45;8.20;99.90
11242;DHT22;5678;52.370;9.006;2023-04-15T08:34:13;7.40;99.90
11242;DHT22;5678;52.370;9.006;2023-04-15T08:36:43;7.70;99.90
11242;DHT22;5678;52.370;9.006;2023-04-15T08:39:11;7.40;99.90
11242;DHT22;5678;52.370;9.006;2023-04-15T08:41:40;7.40;99.90
11242;DHT22;5678;52.370;9.006;2023-04-15T08:44:09;7.40;99.90
11242;DHT22;5678;52.370;9.006;2023-04-15T08:46:37;8.60;99.90
11242;DHT22;5678;52.370;9.006;2023-04-15T08:49:09;7.50;99.90
11242;DHT22;5678;52.370;9.006;2023-04-15T08:51:38;7.50;99.90
11242;DHT22;5678;52.370;9.006;2023-04-15T08:54:08;9.70;99.90
11242;DHT22;5678;52.370;9.006;2023-04-15T08:56:37;7.60;99.90
11242;DHT22;5678;52.370;9.006;2023-04-15T08:59:06;7.60;99.90
11242;DHT22;5678;52.370;9.006;2023-04-15T09:01:34;7.60;99.90
11242;DHT22;5678;52.370;9.006;2023-04-15T09:04:05;7.60;99.90
11242;DHT22;5678;52.370;9.006;2023-04-15T09:06:34;7.70;99.90
11242;DHT22;5678;52.370;9.006;2023-04-15T09:09:01;7.70;99.90
11242;DHT22;5678;52.370;9.006;2023-04-15T09:11:31;8.00;99.90
11242;DHT22;5678;52.370;9.006;2023-04-15T09:13:59;7.90;99.90
11242;DHT22;5678;52.370;9.006;2023-04-15T09:16:27;7.80;99.90
11242;DHT22;5678;52.370;9.006;2023-04-15T09:18:55;7.80;99.90
11242;DHT22;5678;52.370;9.006;2023-04-15T09:21:23;7.80;99.90
11242;DHT22;5678;52.370;9.006;2023-04-15T09:23:55;7.90;99.90
11242;DHT22;5678;52.370;9.006;2023-04-15T09:26:33;7.90;99.90
11242;DHT22;5678;52.370;9.006;2023-04-15T09:29:03;8.10;99.90
11242;DHT22;5678;52.370;9.006;2023-04-15T09:31:32;10.00;99.90
11242;DHT22;5678;52.370;9.006;2023-04-15T09:34:01;7.00;99.90
11242;DHT22;5678;52.370;9.006;2023-04-15T09:36:37;8.10;99.90
11242;DHT22;5678;52.370;9.006;2023-04-15T09:39:08;9.10;99.90
11242;DHT22;5678;52.370;9.006;2023-04-15T09:41:37;8.10;99.90
11242;DHT22;5678;52.370;9.006;2023-04-15T09:44:06;8.10;99.90
11242;DHT22;5678;52.370;9.006;2023-04-15T09:46:40;8.10;99.90
11242;DHT22;5678;52.370;9.006;2023-04-15T09:49:09;8.20;99.90
11242;DHT22;5678;52.370;9.006;2023-04-15T09:51:37;8.10;99.90
11242;DHT22;5678;52.370;9.006;2023-04-15T09:54:05;8.10;99.90
11242;DHT22;5678;52.370;9.006;2023-04-15T09:56:35;9.30;99.90
11242;DHT22;5678;52.370;9.006;2023-04-15T09:59:05;8.20;99.90
11242;DHT22;5678;52.370;9.006;2023-04-15T10:01:34;8.20;99.90
11242;DHT22;5678;52.370;9.006;2023-04-15T10:04:03;8.20;99.90
11242;DHT22;5678;52.370;9.006;2023-04-15T10:06:32;8.20;99.90
11242;DHT22;5678;52.370;9.006;2023-04-15T10:09:01;8.30;99.90
11242;DHT22;5678;52.370;9.006;2023-04-15T10:11:30;8.20;99.90
11242;DHT22;5678;52.370;9.006;2023-04-15T10:13:59;8.20;99.90
11242;DHT22;5678;52.370;9.006;2023-04-15T10:16:31;8.20;99.90
11242;DHT22;5678;52.370;9.006;2023-04-15T10:19:01;8.20;99.90
11242;DHT22;5678;52.370;9.006;2023-04-15T10:21:30;8.20;99.90
11242;DHT22;5678;52.370;9.006;2023-04-15T10:23:58;10.00;99.90
11242;DHT22;5678;52.370;9.006;2023-04-15T10:26:27;9.20;99.90
11242;DHT22;5678;52.370;9.006;2023-04-15T10:28:57;8.10;99.90
11242;DHT22;5678;52.370;9.006;2023-04-15T10:31:26;9.00;99.90
11242;DHT22;5678;52.370;9.006;2023-04-15T10:33:56;8.10;99.90
11242;DHT22;5678;52.370;9.006;2023-04-15T10:36:25;8.10;99.90
11242;DHT22;5678;52.370;9.006;2023-04-15T10:38:53;8.30;99.90
11242;DHT22;5678;52.370;9.006;2023-04-15T10:41:22;9.10;99.90
11242;DHT22;5678;52.370;9.006;2023-04-15T10:43:52;8.20;99.90
11242;DHT22;5678;52.370;9.006;2023-04-15T10:46:26;8.10;99.90
11242;DHT22;5678;52.370;9.006;2023-04-15T10:49:07;10.10;99.90
11242;DHT22;5678;52.370;9.006;2023-04-15T10:51:37;8.20;99.90
11242;DHT22;5678;52.370;9.006;2023-04-15T10:54:11;8.20;99.90
11242;DHT22;5678;52.370;9.006;2023-04-15T10:56:41;8.20;99.90
11242;DHT22;5678;52.370;9.006;2023-04-15T10:59:09;8.10;99.90
11242;DHT22;5678;52.370;9.006;2023-04-15T11:01:50;9.90;99.90
11242;DHT22;5678;52.370;9.006;2023-04-15T11:04:51;7.70;99.90
11242;DHT22;5678;52.370;9.006;2023-04-15T11:07:36;8.20;99.90
11242;DHT22;5678;52.370;9.006;2023-04-15T11:13:25;8.20;99.90
11242;DHT22;5678;52.370;9.006;2023-04-15T11:15:56;10.40;99.90
11242;DHT22;5678;52.370;9.006;2023-04-15T11:18:26;8.20;99.90
11242;DHT22;5678;52.370;9.006;2023-04-15T11:20:58;9.20;99.90
11242;DHT22;5678;52.370;9.006;2023-04-15T11:23:29;8.20;99.90
11242;DHT22;5678;52.370;9.006;2023-04-15T11:25:58;8.80;99.90
11242;DHT22;5678;52.370;9.006;2023-04-15T11:28:29;8.20;99.90
11242;DHT22;5678;52.370;9.006;2023-04-15T11:31:02;8.20;99.90
11242;DHT22;5678;52.370;9.006;2023-04-15T11:33:32;8.30;99.90
11242;DHT22;5678;52.370;9.006;2023-04-15T11:36:01;8.20;99.90
11242;DHT22;5678;52.370;9.006;2023-04-15T11:38:30;8.30;99.90
11242;DHT22;5678;52.370;9.006;2023-04-15T11:40:58;8.30;99.90
11242;DHT22;5678;52.370;9.006;2023-04-15T11:43:26;8.30;99.90
11242;DHT22;5678;52.370;9.006;2023-04-15T11:45:55;8.30;99.90
11242;DHT22;5678;52.370;9.006;2023-04-15T11:48:25;8.30;99.90
11242;DHT22;5678;52.370;9.006;2023-04-15T11:50:55;8.40;99.90
11242;DHT22;5678;52.370;9.006;2023-04-15T11:53:35;10.10;99.90
11242;DHT22;5678;52.370;9.006;2023-04-15T11:56:05;8.60;99.90
11242;DHT22;5678;52.370;9.006;2023-04-15T11:58:34;8.40;99.90
11242;DHT22;5678;52.370;9.006;2023-04-15T12:01:04;8.40;99.90
11242;DHT22;5678;52.370;9.006;2023-04-15T12:03:37;8.50;99.90
11242;DHT22;5678;52.370;9.006;2023-04-15T12:06:11;8.40;99.90
11242;DHT22;5678;52.370;9.006;2023-04-15T12:08:59;8.50;99.90
11242;DHT22;5678;52.370;9.006;2023-04-15T12:11:29;8.50;99.90
11242;DHT22;5678;52.370;9.006;2023-04-15T12:14:01;8.40;99.90
11242;DHT22;5678;52.370;9.006;2023-04-15T12:16:31;9.20;99.90
11242;DHT22;5678;52.370;9.006;2023-04-15T12:19:05;8.50;99.90
11242;DHT22;5678;52.370;9.006;2023-04-15T12:21:35;8.50;99.90
11242;DHT22;5678;52.370;9.006;2023-04-15T12:24:07;9.50;99.90
11242;DHT22;5678;52.370;9.006;2023-04-15T12:26:36;8.60;99.90
11242;DHT22;5678;52.370;9.006;2023-04-15T12:29:06;8.70;99.90
11242;DHT22;5678;52.370;9.006;2023-04-15T12:31:34;8.60;99.90
11242;DHT22;5678;52.370;9.006;2023-04-15T12:34:06;9.30;99.90
11242;DHT22;5678;52.370;9.006;2023-04-15T12:36:35;8.60;99.90
11242;DHT22;5678;52.370;9.006;2023-04-15T12:39:05;8.60;99.90
11242;DHT22;5678;52.370;9.006;2023-04-15T12:41:33;8.70;99.90
11242;DHT22;5678;52.370;9.006;2023-04-15T12:44:01;8.60;99.90
11242;DHT22;5678;52.370;9.006;2023-04-15T12:46:29;8.70;99.90
11242;DHT22;5678;52.370;9.006;2023-04-15T12:48:58;8.80;99.90
11242;DHT22;5678;52.370;9.006;2023-04-15T12:51:26;8.70;99.90
11242;DHT22;5678;52.370;9.006;2023-04-15T12:53:54;10.50;99.90
11242;DHT22;5678;52.370;9.006;2023-04-15T12:56:23;8.90;99.90
11242;DHT22;5678;52.370;9.006;2023-04-15T12:58:51;8.90;99.90
11242;DHT22;5678;52.370;9.006;2023-04-15T13:01:19;8.90;99.90
11242;DHT22;5678;52.370;9.006;2023-04-15T13:03:47;8.90;99.90
11242;DHT22;5678;52.370;9.006;2023-04-15T13:06:16;9.60;99.90
11242;DHT22;5678;52.370;9.006;2023-04-15T13:08:44;8.90;99.90
11242;DHT22;5678;52.370;9.006;2023-04-15T13:11:25;8.90;99.90
11242;DHT22;5678;52.370;9.006;2023-04-15T13:13:54;9.40;99.90
11242;DHT22;5678;52.370;9.006;2023-04-15T13:16:23;8.90;99.90
11242;DHT22;5678;52.370;9.006;2023-04-15T13:18:51;8.90;99.90
11242;DHT22;5678;52.370;9.006;2023-04-15T13:21:19;9.00;99.90
11242;DHT22;5678;52.370;9.006;2023-04-15T13:23:48;10.20;99.90
11242;DHT22;5678;52.370;9.006;2023-04-15T13:26:16;9.00;99.90
11242;DHT22;5678;52.370;9.006;2023-04-15T13:28:46;10.10;99.90
11242;DHT22;5678;52.370;9.006;2023-04-15T13:31:13;9.90;99.90
11242;DHT22;5678;52.370;9.006;2023-04-15T13:33:42;9.10;99.90
11242;DHT22;5678;52.370;9.006;2023-04-15T13:36:09;9.10;99.90
11242;DHT22;5678;52.370;9.006;2023-04-15T13:38:37;10.50;99.90
11242;DHT22;5678;52.370;9.006;2023-04-15T13:41:05;9.00;99.90
11242;DHT22;5678;52.370;9.006;2023-04-15T13:43:33;9.70;99.90
11242;DHT22;5678;52.370;9.006;2023-04-15T13:46:03;9.00;99.90
11242;DHT22;5678;52.370;9.006;2023-04-15T13:48:31;9.00;99.90
11242;DHT22;5678;52.370;9.006;2023-04-15T13:50:59;9.40;99.90
11242;DHT22;5678;52.370;9.006;2023-04-15T13:53:27;9.00;99.90
11242;DHT22;5678;52.370;9.006;2023-04-15T13:56:05;9.00;99.90
11242;DHT22;5678;52.370;9.006;2023-04-15T13:58:33;9.00;99.90
11242;DHT22;5678;52.370;9.006;2023-04-15T14:01:02;9.00;99.90
11242;DHT22;5678;52.370;9.006;2023-04-15T14:03:32;9.10;99.90
11242;DHT22;5678;52.370;9.006;2023-04-15T14:06:01;9.00;99.90
11242;DHT22;5678;52.370;9.006;2023-04-15T14:08:29;9.00;99.90
11242;DHT22;5678;52.370;9.006;2023-04-15T14:10:57;9.00;99.90
11242;DHT22;5678;52.370;9.006;2023-04-15T14:13:25;8.90;99.90
11242;DHT22;5678;52.370;9.006;2023-04-15T14:15:53;9.00;99.90
11242;DHT22;5678;52.370;9.006;2023-04-15T14:18:22;10.20;99.90
11242;DHT22;5678;52.370;9.006;2023-04-15T14:20:50;9.00;99.90
11242;DHT22;5678;52.370;9.006;2023-04-15T14:23:18;9.00;99.90
11242;DHT22;5678;52.370;9.006;2023-04-15T14:25:46;9.20;99.90
11242;DHT22;5678;52.370;9.006;2023-04-15T14:28:14;9.00;99.90
11242;DHT22;5678;52.370;9.006;2023-04-15T14:30:42;9.00;99.90
11242;DHT22;5678;52.370;9.006;2023-04-15T14:33:10;9.00;99.90
11242;DHT22;5678;52.370;9.006;2023-04-15T14:35:39;9.10;99.90
11242;DHT22;5678;52.370;9.006;2023-04-15T14:38:07;11.00;99.90
11242;DHT22;5678;52.370;9.006;2023-04-15T14:40:37;9.50;99.90
11242;DHT22;5678;52.370;9.006;2023-04-15T14:43:05;9.20;99.90
11242;DHT22;5678;52.370;9.006;2023-04-15T14:45:33;9.30;99.90
11242;DHT22;5678;52.370;9.006;2023-04-15T14:48:02;9.30;99.90
11242;DHT22;5678;52.370;9.006;2023-04-15T14:50:32;9.40;99.90
11242;DHT22;5678;52.370;9.006;2023-04-15T14:53:01;9.40;99.90
11242;DHT22;5678;52.370;9.006;2023-04-15T14:55:29;10.40;99.90
11242;DHT22;5678;52.370;9.006;2023-04-15T14:57:57;9.40;99.90
11242;DHT22;5678;52.370;9.006;2023-04-15T15:00:25;10.50;99.90
11242;DHT22;5678;52.370;9.006;2023-04-15T15:02:53;9.70;99.90
11242;DHT22;5678;52.370;9.006;2023-04-15T15:05:21;9.70;99.90
11242;DHT22;5678;52.370;9.006;2023-04-15T15:07:49;10.10;99.90
11242;DHT22;5678;52.370;9.006;2023-04-15T15:10:19;9.60;99.90
11242;DHT22;5678;52.370;9.006;2023-04-15T15:13:08;9.80;99.90
11242;DHT22;5678;52.370;9.006;2023-04-15T15:15:37;9.90;99.90
11242;DHT22;5678;52.370;9.006;2023-04-15T15:18:05;10.90;99.90
11242;DHT22;5678;52.370;9.006;2023-04-15T15:20:33;9.90;99.90
11242;DHT22;5678;52.370;9.006;2023-04-15T15:23:01;10.00;99.90
11242;DHT22;5678;52.370;9.006;2023-04-15T15:25:31;10.10;99.90
11242;DHT22;5678;52.370;9.006;2023-04-15T15:27:59;10.10;99.90
11242;DHT22;5678;52.370;9.006;2023-04-15T15:30:26;10.10;99.90
11242;DHT22;5678;52.370;9.006;2023-04-15T15:32:54;10.20;99.90
11242;DHT22;5678;52.370;9.006;2023-04-15T15:35:22;10.70;99.90
11242;DHT22;5678;52.370;9.006;2023-04-15T15:37:51;10.80;99.90
11242;DHT22;5678;52.370;9.006;2023-04-15T15:40:20;10.20;99.90
11242;DHT22;5678;52.370;9.006;2023-04-15T15:42:49;10.20;99.90
11242;DHT22;5678;52.370;9.006;2023-04-15T15:45:17;11.30;99.90
11242;DHT22;5678;52.370;9.006;2023-04-15T15:47:46;11.70;99.90
11242;DHT22;5678;52.370;9.006;2023-04-15T15:50:14;10.30;99.90
11242;DHT22;5678;52.370;9.006;2023-04-15T15:52:42;10.30;99.90
11242;DHT22;5678;52.370;9.006;2023-04-15T15:55:09;10.30;99.90
11242;DHT22;5678;52.370;9.006;2023-04-15T15:57:37;10.30;99.90
11242;DHT22;5678;52.370;9.006;2023-04-15T16:00:08;10.40;99.90
11242;DHT22;5678;52.370;9.006;2023-04-15T16:02:38;10.50;99.90
11242;DHT22;5678;52.370;9.006;2023-04-15T16:05:10;10.60;99.90
11242;DHT22;5678;52.370;9.006;2023-04-15T16:07:38;10.60;99.90
11242;DHT22;5678;52.370;9.006;2023-04-15T16:10:06;10.70;99.90
11242;DHT22;5678;52.370;9.006;2023-04-15T16:12:35;10.80;99.90
11242;DHT22;5678;52.370;9.006;2023-04-15T16:15:03;10.90;99.90